Bucks, Alabama
Current Conditions -  °F | °C
As of 9:56 AM on Wednesday 22 Oct 2014 (Local Time) from KMOB Reporting Station
Clear Clear  
Wind Chill: 67°   Ceiling: Unl
Heat Index: 67°   Visibility: 10mi
Dew Point: 53°   Wind: 9mph
Humidity: 61%   Direction: 40°NE
Pressure: 30.11"   Gusts: NA
Location:  31.01°N, 88.02°W
Report Text: KMOB 221456Z 04008KT 10SM CLR 19/12 A3011 RMK AO2 SLP195 T01940117 51015 $
Loading
Personal Weather Stations






























Interactive Weather Map
Tropical Storm Tracking
New forecast layout! Learn more

10-Day Weather Forecast

Advertisements
Track Severe Weather on mobile